Time;durP1;ratioP1;P1;durP2;ratioP2;P2;SDS_P1;SDS_P2;PMS_P1;PMS_P2;Temp;Humidity;BMP_temperature;BMP_pressure;BME280_temperature;BME280_humidity;BME280_pressure;Samples;Min_cycle;Max_cycle;Signal;HPM_P1;HPM_P2
2023/04/26 00:00:28;;;;;;;7.80;7.00;;;2.00;99.90;;;;;;2614356;54;20629;-85
2023/04/26 00:06:16;;;;;;;10.17;7.17;;;2.00;99.90;;;;;;2611071;54;20967;-83
2023/04/26 00:12:04;;;;;;;11.50;9.30;;;2.00;99.90;;;;;;2612389;54;20145;-82
2023/04/26 00:17:52;;;;;;;10.23;7.63;;;2.00;99.90;;;;;;2613531;54;20403;-83
2023/04/26 00:23:41;;;;;;;8.00;7.20;;;1.90;99.90;;;;;;2610930;54;20268;-83
2023/04/26 00:29:28;;;;;;;8.33;7.53;;;1.90;99.90;;;;;;2614098;54;20407;-84
2023/04/26 00:39:20;;;;;;;9.53;7.80;;;1.80;99.90;;;;;;2613328;54;20387;-84
2023/04/26 00:45:08;;;;;;;11.97;8.37;;;1.60;99.90;;;;;;2612007;54;20383;-83
2023/04/26 00:50:56;;;;;;;8.23;7.20;;;1.40;99.90;;;;;;2610251;54;20403;-82
2023/04/26 00:56:44;;;;;;;13.37;8.47;;;1.50;99.90;;;;;;2612638;31;20591;-82
2023/04/26 01:02:32;;;;;;;10.10;7.93;;;1.40;99.90;;;;;;2611872;54;21036;-82
2023/04/26 01:08:22;;;;;;;8.50;7.70;;;1.30;99.90;;;;;;2612313;54;20135;-82
2023/04/26 01:14:10;;;;;;;9.47;8.50;;;1.30;99.90;;;;;;2611405;54;20414;-83
2023/04/26 01:19:58;;;;;;;8.93;7.23;;;1.20;99.90;;;;;;2612970;54;20418;-83
2023/04/26 01:25:47;;;;;;;10.37;7.27;;;1.30;99.90;;;;;;2613536;54;20131;-84
2023/04/26 01:31:35;;;;;;;9.73;7.60;;;1.60;99.90;;;;;;2613438;54;20399;-84
2023/04/26 01:34:48;;;;;;;11.33;8.07;;;1.60;99.90;;;;;;2612947;47;20431;-83
2023/04/26 01:37:13;;;;;;;11.13;6.90;;;1.60;99.90;;;;;;2613427;47;20547;-87
2023/04/26 01:43:02;;;;;;;10.97;8.23;;;1.50;99.90;;;;;;2614015;54;20126;-83
2023/04/26 01:48:49;;;;;;;9.87;6.60;;;1.60;99.90;;;;;;2612663;54;20393;-83
2023/04/26 01:54:37;;;;;;;9.90;7.70;;;1.70;99.90;;;;;;2612820;54;20125;-84
2023/04/26 02:00:27;;;;;;;12.63;8.57;;;1.60;99.90;;;;;;2616542;54;20145;-87
2023/04/26 02:06:15;;;;;;;14.40;8.50;;;1.50;99.90;;;;;;2616033;39;20916;-87
2023/04/26 02:12:03;;;;;;;10.53;8.83;;;1.30;99.90;;;;;;2613458;54;20403;-82
2023/04/26 02:17:52;;;;;;;9.33;7.57;;;1.60;99.90;;;;;;2614103;39;20491;-83
2023/04/26 02:23:40;;;;;;;13.70;8.97;;;1.50;99.90;;;;;;2616706;54;20378;-85
2023/04/26 02:29:28;;;;;;;13.70;9.37;;;1.10;99.90;;;;;;2617182;39;20798;-84
2023/04/26 02:39:19;;;;;;;13.07;9.97;;;1.20;99.90;;;;;;2618441;39;20792;-87
2023/04/26 02:45:07;;;;;;;16.13;8.93;;;1.30;99.90;;;;;;2616953;54;20366;-87
2023/04/26 02:50:56;;;;;;;10.93;8.43;;;1.20;99.90;;;;;;2617846;54;20434;-87
2023/04/26 02:56:43;;;;;;;12.70;8.20;;;0.80;99.90;;;;;;2619824;39;20790;-88
2023/04/26 03:02:31;;;;;;;13.53;9.23;;;0.60;99.90;;;;;;2613183;54;20158;-84
2023/04/26 03:08:19;;;;;;;17.47;9.07;;;0.60;99.90;;;;;;2617309;54;20354;-86
2023/04/26 03:14:07;;;;;;;15.33;8.70;;;0.90;99.90;;;;;;2617239;54;20167;-84
2023/04/26 03:19:55;;;;;;;11.57;8.50;;;0.90;99.90;;;;;;2613790;54;20684;-83
2023/04/26 03:25:43;;;;;;;10.33;8.53;;;0.50;99.90;;;;;;2614270;54;20480;-86
2023/04/26 03:31:31;;;;;;;18.60;9.37;;;0.60;99.90;;;;;;2618769;54;20459;-87
2023/04/26 03:34:48;;;;;;;15.73;10.57;;;0.70;99.90;;;;;;2615641;46;20399;-86
2023/04/26 03:37:14;;;;;;;14.97;9.37;;;0.90;99.90;;;;;;2614740;47;20166;-87
2023/04/26 03:43:02;;;;;;;21.63;11.23;;;0.90;99.90;;;;;;2614928;54;20135;-87
2023/04/26 03:48:50;;;;;;;13.13;9.87;;;0.60;99.90;;;;;;2614859;54;20146;-84
2023/04/26 03:54:38;;;;;;;13.80;10.03;;;0.40;99.90;;;;;;2615478;54;20932;-85
2023/04/26 04:00:26;;;;;;;17.10;10.00;;;0.40;99.90;;;;;;2614373;54;20639;-85
2023/04/26 04:06:14;;;;;;;16.10;12.47;;;0.80;99.90;;;;;;2615390;54;20138;-85
2023/04/26 04:12:03;;;;;;;13.77;11.17;;;0.70;99.90;;;;;;2614181;54;20431;-86
2023/04/26 04:17:51;;;;;;;19.67;12.17;;;0.50;99.90;;;;;;2615871;54;20412;-85
2023/04/26 04:23:39;;;;;;;21.63;11.67;;;0.80;99.90;;;;;;2616410;54;20367;-87
2023/04/26 04:29:27;;;;;;;23.57;11.20;;;0.90;99.90;;;;;;2617416;54;20410;-84
2023/04/26 04:39:16;;;;;;;20.30;12.00;;;1.00;99.90;;;;;;2614578;54;20374;-86
2023/04/26 04:45:04;;;;;;;14.63;11.60;;;1.10;99.90;;;;;;2614054;54;20503;-86
2023/04/26 04:50:52;;;;;;;19.83;13.03;;;1.10;99.90;;;;;;2612780;54;20382;-84
2023/04/26 04:56:40;;;;;;;16.50;13.60;;;1.20;99.90;;;;;;2612294;54;20154;-84
2023/04/26 05:02:28;;;;;;;19.40;12.70;;;1.40;99.90;;;;;;2614361;54;20398;-87
2023/04/26 05:08:15;;;;;;;17.20;11.13;;;1.60;99.90;;;;;;2614909;39;20505;-86
2023/04/26 05:14:03;;;;;;;26.43;14.30;;;1.90;99.90;;;;;;2616617;54;20130;-85
2023/04/26 05:19:51;;;;;;;21.50;14.00;;;2.30;99.90;;;;;;2615636;54;20688;-85
2023/04/26 05:25:39;;;;;;;23.90;14.70;;;2.80;99.90;;;;;;2615338;31;20598;-86
2023/04/26 05:31:27;;;;;;;19.37;13.40;;;4.00;99.90;;;;;;2615450;54;20267;-85
2023/04/26 05:34:48;;;;;;;26.87;15.90;;;4.40;99.90;;;;;;2616049;54;20423;-85
2023/04/26 05:37:16;;;;;;;29.10;17.13;;;4.60;99.90;;;;;;2614225;54;20170;-84
2023/04/26 05:40:28;;;;;;;21.67;16.87;;;5.10;99.90;;;;;;2612540;54;20417;-84
2023/04/26 05:42:54;;;;;;;23.00;16.90;;;5.20;99.90;;;;;;2610706;46;20422;-88
2023/04/26 05:48:43;;;;;;;33.77;17.70;;;5.60;99.90;;;;;;2614767;54;21032;-84
2023/04/26 05:54:30;;;;;;;24.13;16.80;;;6.00;99.90;;;;;;2614059;46;20401;-83
2023/04/26 06:00:21;;;;;;;24.37;18.43;;;5.80;99.90;;;;;;2615997;39;20533;-87
2023/04/26 06:06:09;;;;;;;27.33;18.80;;;6.10;99.90;;;;;;2615744;54;22074;-86
2023/04/26 06:11:58;;;;;;;24.00;18.93;;;6.80;99.90;;;;;;2616194;54;20399;-86
2023/04/26 06:17:46;;;;;;;22.07;18.23;;;7.50;99.90;;;;;;2615690;54;20453;-86
2023/04/26 06:23:34;;;;;;;22.80;16.93;;;7.60;99.90;;;;;;2616173;54;20149;-86
2023/04/26 06:29:22;;;;;;;25.60;16.07;;;8.50;99.90;;;;;;2615111;54;20127;-86
2023/04/26 06:39:19;;;;;;;17.87;15.97;;;8.20;99.70;;;;;;2616498;54;20390;-87
2023/04/26 06:45:07;;;;;;;17.60;13.20;;;8.60;87.60;;;;;;2616247;54;20359;-87
2023/04/26 06:50:55;;;;;;;15.63;14.00;;;9.10;80.10;;;;;;2616219;54;20394;-84
2023/04/26 06:56:43;;;;;;;15.67;13.67;;;8.70;76.80;;;;;;2617430;54;20158;-85
2023/04/26 07:02:31;;;;;;;16.30;14.63;;;9.50;61.60;;;;;;2617745;54;20435;-86
2023/04/26 07:08:19;;;;;;;14.30;12.90;;;9.10;62.00;;;;;;2617399;54;20129;-85
2023/04/26 07:14:06;;;;;;;13.07;11.50;;;9.50;58.30;;;;;;2617273;54;20130;-85
2023/04/26 07:19:54;;;;;;;13.80;12.70;;;9.30;55.90;;;;;;2620642;54;20134;-86
2023/04/26 07:25:42;;;;;;;15.87;14.10;;;8.80;63.80;;;;;;2620736;54;20134;-86
2023/04/26 07:31:31;;;;;;;18.30;16.60;;;9.00;50.50;;;;;;2621918;54;20158;-85
2023/04/26 07:37:31;;;;;;;15.70;13.70;;;9.30;46.70;;;;;;2620372;47;20388;-84
2023/04/26 07:43:22;;;;;;;15.60;13.73;;;9.90;41.20;;;;;;2621413;54;20155;-84
2023/04/26 07:49:09;;;;;;;17.00;13.93;;;9.90;38.50;;;;;;2618727;54;20387;-85
2023/04/26 07:54:56;;;;;;;14.10;13.00;;;9.80;32.50;;;;;;2618487;54;20179;-85
2023/04/26 08:00:44;;;;;;;11.90;10.97;;;8.70;25.80;;;;;;2619337;54;20147;-84
2023/04/26 08:06:32;;;;;;;13.40;12.10;;;9.50;24.80;;;;;;2618242;54;20157;-85
2023/04/26 08:12:19;;;;;;;14.93;13.83;;;9.20;24.80;;;;;;2617771;54;20383;-84
2023/04/26 08:18:06;;;;;;;15.90;14.70;;;9.20;24.40;;;;;;2619395;54;20190;-85
2023/04/26 08:23:54;;;;;;;12.77;11.87;;;8.80;28.10;;;;;;2618142;54;20134;-84
2023/04/26 08:29:42;;;;;;;13.53;12.47;;;10.30;21.00;;;;;;2614997;54;20122;-85
2023/04/26 08:39:20;;;;;;;13.23;12.43;;;9.90;15.70;;;;;;2615307;54;20499;-86
2023/04/26 08:45:10;;;;;;;14.20;13.30;;;9.60;11.50;;;;;;2612893;54;20402;-83
2023/04/26 08:51:00;;;;;;;15.13;13.97;;;9.40;11.90;;;;;;2613962;54;20419;-84
2023/04/26 08:56:48;;;;;;;17.43;15.80;;;10.50;7.50;;;;;;2613679;54;20423;-84
2023/04/26 09:02:36;;;;;;;15.53;14.17;;;10.30;3.30;;;;;;2614469;54;20507;-82
2023/04/26 09:05:42;;;;;;;15.50;13.93;;;10.20;3.50;;;;;;2611847;39;20820;-82
2023/04/26 09:08:12;;;;;;;15.40;14.00;;;9.70;2.60;;;;;;2612241;54;20431;-82
2023/04/26 09:14:00;;;;;;;13.93;12.83;;;9.00;7.20;;;;;;2613825;54;20370;-82
2023/04/26 09:19:47;;;;;;;14.60;13.80;;;9.20;8.40;;;;;;2612577;54;20675;-81
2023/04/26 09:25:36;;;;;;;14.07;13.07;;;9.10;9.80;;;;;;2615383;54;20150;-83
2023/04/26 09:31:42;;;;;;;15.90;14.60;;;9.90;7.40;;;;;;2614798;54;20476;-83
2023/04/26 09:34:46;;;;;;;14.80;13.60;;;9.80;7.20;;;;;;2615766;39;20932;-83
2023/04/26 09:37:12;;;;;;;14.63;13.23;;;9.50;8.50;;;;;;2612557;39;20893;-83
2023/04/26 09:43:04;;;;;;;16.00;14.60;;;9.70;11.00;;;;;;2614343;54;20964;-83
2023/04/26 09:55:37;;;;;;;15.60;14.60;;;9.70;2.30;;;;;;2611940;54;20539;-82
2023/04/26 10:01:28;;;;;;;15.40;14.30;;;10.50;1.00;;;;;;2614724;54;20737;-81
2023/04/26 10:07:19;;;;;;;16.40;15.10;;;10.90;1.00;;;;;;2611554;39;20815;-83
2023/04/26 10:13:07;;;;;;;15.67;14.57;;;11.60;1.00;;;;;;2612145;54;20379;-82
2023/04/26 10:18:55;;;;;;;15.60;14.40;;;10.80;1.00;;;;;;2612638;54;20435;-82
2023/04/26 10:24:44;;;;;;;15.73;14.17;;;10.00;1.00;;;;;;2613132;39;20811;-83
2023/04/26 10:30:32;;;;;;;13.77;12.97;;;10.60;1.00;;;;;;2615274;39;20708;-84
2023/04/26 10:39:43;;;;;;;14.57;13.47;;;10.40;1.00;;;;;;2613944;54;20395;-82
2023/04/26 10:45:31;;;;;;;13.40;12.60;;;10.50;1.00;;;;;;2615252;54;20382;-83
2023/04/26 10:51:19;;;;;;;16.23;14.60;;;10.40;1.00;;;;;;2615901;39;20387;-83
2023/04/26 10:57:07;;;;;;;12.20;11.60;;;10.40;1.00;;;;;;2614230;54;20414;-84
2023/04/26 11:03:02;;;;;;;14.73;13.40;;;11.20;1.00;;;;;;2615224;54;20131;-84
2023/04/26 11:08:51;;;;;;;13.10;12.30;;;11.80;1.00;;;;;;2613815;54;20374;-83
2023/04/26 11:14:41;;;;;;;13.03;12.30;;;11.80;1.00;;;;;;2615866;54;20423;-83
2023/04/26 11:20:32;;;;;;;14.43;13.07;;;11.40;1.00;;;;;;2617367;54;20376;-82
2023/04/26 11:26:21;;;;;;;13.70;12.80;;;11.00;1.00;;;;;;2618804;54;20439;-82
2023/04/26 11:32:09;;;;;;;15.00;14.00;;;11.40;1.00;;;;;;2618954;54;20423;-84
2023/04/26 11:35:04;;;;;;;13.10;12.20;;;10.70;1.00;;;;;;2617136;54;20423;-83
2023/04/26 11:37:30;;;;;;;14.70;13.80;;;11.30;1.00;;;;;;2620854;47;20420;-83
2023/04/26 11:43:19;;;;;;;14.73;13.60;;;10.80;1.00;;;;;;2624209;54;20391;-82
2023/04/26 11:49:08;;;;;;;13.80;13.00;;;11.20;1.00;;;;;;2624218;54;20359;-81
2023/04/26 11:55:06;;;;;;;14.70;13.83;;;10.80;1.00;;;;;;2625977;54;20382;-84
2023/04/26 12:00:59;;;;;;;14.70;13.57;;;11.00;1.00;;;;;;2626499;54;20395;-82
2023/04/26 12:06:49;;;;;;;13.40;12.80;;;10.80;1.00;;;;;;2626004;54;20377;-84
2023/04/26 12:12:42;;;;;;;14.40;13.27;;;10.80;1.00;;;;;;2627396;54;20441;-83
2023/04/26 12:18:31;;;;;;;13.50;12.63;;;11.10;1.00;;;;;;2627535;46;20398;-83
2023/04/26 12:24:24;;;;;;;14.47;13.13;;;11.50;1.00;;;;;;2626400;54;20511;-82
2023/04/26 12:30:12;;;;;;;15.47;14.40;;;11.20;1.00;;;;;;2619406;54;20366;-82
2023/04/26 12:39:35;;;;;;;14.10;13.07;;;11.20;1.00;;;;;;2614310;54;20387;-81
2023/04/26 12:45:25;;;;;;;14.60;13.50;;;11.20;1.00;;;;;;2613808;54;21033;-82
2023/04/26 12:51:13;;;;;;;15.13;14.07;;;11.40;1.00;;;;;;2611720;46;20390;-82
2023/04/26 12:57:01;;;;;;;15.60;14.23;;;11.00;1.00;;;;;;2613999;54;20239;-81
2023/04/26 13:02:49;;;;;;;14.90;14.00;;;11.20;1.00;;;;;;2612806;54;20142;-82
2023/04/26 13:08:38;;;;;;;15.80;14.13;;;11.10;1.00;;;;;;2613667;54;20134;-82
2023/04/26 13:14:26;;;;;;;16.20;15.10;;;11.10;1.00;;;;;;2615873;54;20896;-83
2023/04/26 13:20:14;;;;;;;14.23;13.30;;;11.10;1.00;;;;;;2614834;54;20259;-82
2023/04/26 13:26:02;;;;;;;13.60;12.87;;;12.00;1.00;;;;;;2614825;54;20395;-82
2023/04/26 13:31:50;;;;;;;16.33;15.10;;;12.00;1.00;;;;;;2615042;54;20135;-83
2023/04/26 13:35:04;;;;;;;14.83;13.93;;;12.30;1.00;;;;;;2616913;54;20518;-84
2023/04/26 13:37:30;;;;;;;14.57;13.37;;;12.10;1.00;;;;;;2614900;39;20565;-83
2023/04/26 13:43:18;;;;;;;16.97;15.70;;;12.30;1.00;;;;;;2615493;54;20170;-83
2023/04/26 13:49:07;;;;;;;15.10;14.10;;;12.20;1.00;;;;;;2612685;54;20226;-84
2023/04/26 13:54:55;;;;;;;15.90;14.80;;;12.20;1.00;;;;;;2614317;54;20416;-84
2023/04/26 14:00:42;;;;;;;15.27;14.37;;;11.90;1.00;;;;;;2616090;54;20137;-83
2023/04/26 14:06:33;;;;;;;15.00;14.10;;;12.40;1.00;;;;;;2617621;54;20154;-85
2023/04/26 14:12:21;;;;;;;15.43;14.37;;;12.70;1.00;;;;;;2614996;54;20479;-84
2023/04/26 14:18:10;;;;;;;16.20;15.10;;;12.70;1.00;;;;;;2615571;54;20123;-83
2023/04/26 14:23:57;;;;;;;14.87;13.97;;;12.20;1.00;;;;;;2613953;54;20395;-82
2023/04/26 14:29:45;;;;;;;14.10;13.13;;;12.20;1.00;;;;;;2614880;54;20652;-81
2023/04/26 14:39:36;;;;;;;22.37;15.13;;;12.40;1.00;;;;;;2612071;54;20391;-82
2023/04/26 14:45:24;;;;;;;13.40;12.50;;;11.80;1.00;;;;;;2615813;54;20989;-82
2023/04/26 14:51:12;;;;;;;14.77;13.40;;;11.80;1.00;;;;;;2614585;54;20396;-82
2023/04/26 14:57:01;;;;;;;14.10;12.90;;;11.70;1.00;;;;;;2611875;54;20395;-82
2023/04/26 15:02:49;;;;;;;14.20;13.30;;;12.90;1.00;;;;;;2614894;54;20422;-82
2023/04/26 15:05:52;;;;;;;14.03;13.13;;;13.00;1.00;;;;;;2614651;47;20419;-83
2023/04/26 15:08:19;;;;;;;16.20;15.00;;;13.70;1.00;;;;;;2613320;54;20166;-83
2023/04/26 15:14:07;;;;;;;14.77;13.77;;;13.90;1.00;;;;;;2618175;54;20423;-82
2023/04/26 15:19:55;;;;;;;14.50;13.30;;;13.80;1.00;;;;;;2615058;54;20395;-83
2023/04/26 15:25:43;;;;;;;14.50;13.40;;;12.10;1.00;;;;;;2614497;54;20507;-83
2023/04/26 15:31:31;;;;;;;14.67;13.87;;;11.90;1.00;;;;;;2616762;39;20458;-82
2023/04/26 15:37:19;;;;;;;17.40;15.03;;;11.90;1.00;;;;;;2615469;54;20188;-84
2023/04/26 15:43:07;;;;;;;14.87;13.90;;;11.70;1.00;;;;;;2613087;54;20491;-83
2023/04/26 15:48:55;;;;;;;14.93;13.90;;;11.50;1.00;;;;;;2612599;54;21410;-83
2023/04/26 15:54:43;;;;;;;16.93;15.97;;;11.50;1.00;;;;;;2613384;54;20123;-83
2023/04/26 16:00:31;;;;;;;15.47;14.10;;;11.30;1.00;;;;;;2613472;54;20147;-82
2023/04/26 16:06:19;;;;;;;16.97;15.80;;;11.10;1.00;;;;;;2612838;54;20548;-83
2023/04/26 16:12:07;;;;;;;16.97;15.73;;;10.90;1.00;;;;;;2614856;54;20408;-82
2023/04/26 16:17:55;;;;;;;18.83;17.43;;;10.40;1.00;;;;;;2612783;54;20420;-81
2023/04/26 16:23:42;;;;;;;18.73;17.40;;;10.30;1.00;;;;;;2613057;54;20653;-82
2023/04/26 16:29:30;;;;;;;15.87;14.70;;;10.30;1.00;;;;;;2614790;54;20130;-82
2023/04/26 16:39:40;;;;;;;16.27;14.57;;;10.70;1.00;;;;;;2617279;54;20391;-82
2023/04/26 16:45:27;;;;;;;15.70;14.70;;;10.80;1.00;;;;;;2617269;54;20390;-82
2023/04/26 16:51:15;;;;;;;15.87;14.97;;;10.60;1.00;;;;;;2616657;54;20146;-85
2023/04/26 16:57:03;;;;;;;16.07;15.10;;;10.50;1.00;;;;;;2616603;54;20714;-82
2023/04/26 17:02:51;;;;;;;15.87;14.47;;;10.40;1.00;;;;;;2615410;54;20138;-83
2023/04/26 17:08:39;;;;;;;14.17;13.37;;;10.50;1.00;;;;;;2616665;54;20131;-83
2023/04/26 17:14:27;;;;;;;15.63;14.63;;;10.20;1.00;;;;;;2615468;54;20154;-83
2023/04/26 17:20:15;;;;;;;21.93;20.00;;;10.20;1.00;;;;;;2614766;54;20150;-82
2023/04/26 17:26:03;;;;;;;15.53;14.20;;;10.10;1.00;;;;;;2613848;54;20471;-83
2023/04/26 17:31:51;;;;;;;16.10;14.90;;;10.10;1.00;;;;;;2614651;54;23722;-83
2023/04/26 17:35:08;;;;;;;15.80;14.70;;;10.10;1.00;;;;;;2614678;54;20432;-84
2023/04/26 17:37:34;;;;;;;15.13;14.10;;;10.20;1.00;;;;;;2614664;54;20170;-83
2023/04/26 17:43:21;;;;;;;18.50;17.17;;;10.10;1.00;;;;;;2616843;54;20154;-83
2023/04/26 17:49:09;;;;;;;17.13;15.93;;;9.90;1.00;;;;;;2617718;54;20137;-83
2023/04/26 17:54:57;;;;;;;14.63;13.57;;;9.90;1.00;;;;;;2617062;39;20875;-82
2023/04/26 18:00:45;;;;;;;16.07;15.17;;;9.70;1.00;;;;;;2618560;54;20395;-82
2023/04/26 18:06:33;;;;;;;15.60;14.70;;;9.60;1.00;;;;;;2618928;39;20850;-83
2023/04/26 18:12:21;;;;;;;15.40;14.30;;;9.40;1.00;;;;;;2617394;54;20158;-83
2023/04/26 18:18:09;;;;;;;16.50;15.30;;;9.40;1.00;;;;;;2617644;54;20632;-84
2023/04/26 18:23:59;;;;;;;14.87;13.97;;;9.20;1.00;;;;;;2617453;54;20379;-83
2023/04/26 18:29:48;;;;;;;18.83;17.63;;;9.20;1.00;;;;;;2616217;39;20591;-82
2023/04/26 18:39:36;;;;;;;16.90;15.80;;;9.00;3.20;;;;;;2616653;54;20418;-82
2023/04/26 18:45:27;;;;;;;15.83;14.37;;;8.90;3.80;;;;;;2620620;54;21123;-83
2023/04/26 18:51:15;;;;;;;17.20;16.20;;;8.80;7.00;;;;;;2623650;54;20419;-83
2023/04/26 18:57:03;;;;;;;16.10;14.50;;;8.70;8.00;;;;;;2626428;54;20403;-83
2023/04/26 19:02:52;;;;;;;18.17;16.53;;;8.60;12.80;;;;;;2626624;54;20142;-83
2023/04/26 19:08:43;;;;;;;17.43;16.23;;;8.50;15.70;;;;;;2627131;54;20386;-82
2023/04/26 19:14:31;;;;;;;20.53;18.40;;;8.40;19.70;;;;;;2631877;46;20370;-84
2023/04/26 19:20:19;;;;;;;19.33;17.60;;;8.30;20.50;;;;;;2628102;54;20130;-84
2023/04/26 19:26:13;;;;;;;18.20;16.23;;;8.30;19.60;;;;;;2620857;54;20134;-82
2023/04/26 19:32:03;;;;;;;17.60;16.10;;;8.30;20.90;;;;;;2618023;54;20382;-82
2023/04/26 19:35:07;;;;;;;17.23;15.93;;;8.20;21.90;;;;;;2617049;54;20399;-82
2023/04/26 19:37:34;;;;;;;18.50;17.00;;;8.20;24.40;;;;;;2617226;47;20398;-83
2023/04/26 19:43:22;;;;;;;17.10;15.70;;;8.20;26.30;;;;;;2618099;39;20796;-83
2023/04/26 19:49:10;;;;;;;18.20;16.50;;;8.10;28.50;;;;;;2618792;54;20243;-82
2023/04/26 19:54:58;;;;;;;23.23;21.17;;;8.00;29.70;;;;;;2616903;54;20516;-83
2023/04/26 20:00:46;;;;;;;20.17;18.37;;;8.10;35.20;;;;;;2620711;39;20689;-83
2023/04/26 20:06:35;;;;;;;17.63;15.87;;;7.90;38.00;;;;;;2618540;54;20408;-82
2023/04/26 20:12:31;;;;;;;20.17;16.60;;;7.90;44.00;;;;;;2619002;54;20442;-83
2023/04/26 20:18:21;;;;;;;19.07;16.73;;;7.90;45.70;;;;;;2615273;54;21228;-83
2023/04/26 20:24:09;;;;;;;19.83;18.00;;;7.90;47.30;;;;;;2615014;54;20393;-84
2023/04/26 20:30:03;;;;;;;19.40;17.50;;;7.90;51.30;;;;;;2614652;31;20670;-83
2023/04/26 20:39:39;;;;;;;20.47;18.87;;;7.80;54.30;;;;;;2615045;54;20503;-83
2023/04/26 20:45:27;;;;;;;18.70;17.10;;;7.70;64.20;;;;;;2615316;54;20391;-83
2023/04/26 20:51:16;;;;;;;17.97;16.67;;;7.60;73.60;;;;;;2615736;54;20395;-83
2023/04/26 20:57:04;;;;;;;17.10;15.80;;;7.50;82.40;;;;;;2614700;54;20403;-83
2023/04/26 21:02:52;;;;;;;18.47;17.07;;;7.50;91.20;;;;;;2615701;54;20403;-83
2023/04/26 21:08:41;;;;;;;19.50;15.07;;;7.50;85.90;;;;;;2618192;54;20134;-85
2023/04/26 21:14:32;;;;;;;18.23;16.43;;;7.50;81.20;;;;;;2616455;39;20791;-85
2023/04/26 21:20:20;;;;;;;17.97;16.50;;;7.40;84.70;;;;;;2617578;54;20402;-83
2023/04/26 21:26:08;;;;;;;17.67;16.10;;;7.30;83.70;;;;;;2615092;54;20138;-84
2023/04/26 21:31:56;;;;;;;15.87;14.63;;;7.30;88.90;;;;;;2613684;54;20157;-84
2023/04/26 21:35:09;;;;;;;18.00;16.53;;;7.20;86.90;;;;;;2612656;54;20945;-83
2023/04/26 21:37:36;;;;;;;16.37;15.20;;;7.10;88.40;;;;;;2611175;47;20221;-83
2023/04/26 21:43:24;;;;;;;18.33;16.87;;;7.10;94.50;;;;;;2614284;54;20407;-85
2023/04/26 21:49:12;;;;;;;19.13;17.27;;;7.00;97.40;;;;;;2614196;54;20395;-83
2023/04/26 21:55:00;;;;;;;18.23;16.63;;;6.80;99.90;;;;;;2614182;54;20166;-83
2023/04/26 22:00:49;;;;;;;16.00;14.57;;;6.70;99.90;;;;;;2615687;54;21154;-85
2023/04/26 22:06:37;;;;;;;16.57;14.83;;;6.70;99.90;;;;;;2615770;54;20365;-85
2023/04/26 22:12:26;;;;;;;19.63;17.47;;;6.50;99.90;;;;;;2615866;54;23377;-83
2023/04/26 22:18:14;;;;;;;15.93;14.63;;;6.40;99.90;;;;;;2614325;54;20587;-85
2023/04/26 22:24:03;;;;;;;17.93;16.50;;;6.30;99.90;;;;;;2615593;39;20793;-84
2023/04/26 22:29:51;;;;;;;17.37;15.63;;;6.20;99.90;;;;;;2614883;54;20418;-84
2023/04/26 22:39:39;;;;;;;19.93;14.60;;;6.10;99.90;;;;;;2614473;39;20760;-83
2023/04/26 22:45:26;;;;;;;16.40;14.80;;;5.90;99.90;;;;;;2614484;54;20945;-84
2023/04/26 22:51:14;;;;;;;18.00;15.90;;;5.70;99.90;;;;;;2613189;54;20130;-83
2023/04/26 22:57:04;;;;;;;15.77;13.27;;;5.40;99.90;;;;;;2614403;54;20410;-83
2023/04/26 23:02:52;;;;;;;17.97;14.57;;;5.40;99.90;;;;;;2614978;54;20889;-85
2023/04/26 23:08:40;;;;;;;19.63;15.27;;;5.10;99.90;;;;;;2614377;54;20130;-85
2023/04/26 23:14:29;;;;;;;16.83;15.13;;;4.80;99.90;;;;;;2617512;54;20130;-86
2023/04/26 23:20:17;;;;;;;16.27;14.70;;;4.50;99.90;;;;;;2617054;54;20382;-85
2023/04/26 23:26:05;;;;;;;15.47;13.80;;;4.40;99.90;;;;;;2614103;54;20383;-83
2023/04/26 23:31:53;;;;;;;14.10;12.60;;;4.20;99.90;;;;;;2613673;54;20382;-85
2023/04/26 23:35:08;;;;;;;14.77;13.37;;;4.10;99.90;;;;;;2614427;47;21040;-84
2023/04/26 23:37:34;;;;;;;14.00;12.80;;;4.00;99.90;;;;;;2612354;54;20155;-84
2023/04/26 23:43:22;;;;;;;12.40;11.37;;;4.00;99.90;;;;;;2611114;54;20175;-84
2023/04/26 23:49:10;;;;;;;13.37;11.57;;;3.70;99.90;;;;;;2612178;54;20150;-83
2023/04/26 23:54:58;;;;;;;11.73;10.53;;;3.60;99.90;;;;;;2611922;54;20130;-84
